sensor_id;sensor_type;location;lat;lon;timestamp;P1;durP1;ratioP1;P2;durP2;ratioP2
13855;SDS011;6998;53.608;9.958;2023-05-07T00:00:53;12.18;;;10.95;;
13855;SDS011;6998;53.608;9.958;2023-05-07T00:03:20;11.55;;;10.35;;
13855;SDS011;6998;53.608;9.958;2023-05-07T00:05:48;11.57;;;9.95;;
13855;SDS011;6998;53.608;9.958;2023-05-07T00:08:15;12.40;;;10.93;;
13855;SDS011;6998;53.608;9.958;2023-05-07T00:10:42;11.10;;;10.00;;
13855;SDS011;6998;53.608;9.958;2023-05-07T00:13:09;13.20;;;10.95;;
13855;SDS011;6998;53.608;9.958;2023-05-07T00:15:35;11.80;;;10.68;;
13855;SDS011;6998;53.608;9.958;2023-05-07T00:18:02;12.90;;;11.60;;
13855;SDS011;6998;53.608;9.958;2023-05-07T00:20:29;12.13;;;10.90;;
13855;SDS011;6998;53.608;9.958;2023-05-07T00:22:59;12.57;;;11.27;;
13855;SDS011;6998;53.608;9.958;2023-05-07T00:25:26;12.10;;;10.88;;
13855;SDS011;6998;53.608;9.958;2023-05-07T00:27:53;13.18;;;11.85;;
13855;SDS011;6998;53.608;9.958;2023-05-07T00:30:22;12.38;;;11.10;;
13855;SDS011;6998;53.608;9.958;2023-05-07T00:32:49;12.63;;;11.32;;
13855;SDS011;6998;53.608;9.958;2023-05-07T00:35:16;12.82;;;11.43;;
13855;SDS011;6998;53.608;9.958;2023-05-07T00:37:43;12.32;;;11.00;;
13855;SDS011;6998;53.608;9.958;2023-05-07T00:40:12;13.05;;;11.75;;
13855;SDS011;6998;53.608;9.958;2023-05-07T00:42:39;13.88;;;11.63;;
13855;SDS011;6998;53.608;9.958;2023-05-07T00:45:06;12.48;;;11.18;;
13855;SDS011;6998;53.608;9.958;2023-05-07T00:47:35;12.50;;;11.25;;
13855;SDS011;6998;53.608;9.958;2023-05-07T00:50:03;14.50;;;12.02;;
13855;SDS011;6998;53.608;9.958;2023-05-07T00:52:30;13.38;;;12.00;;
13855;SDS011;6998;53.608;9.958;2023-05-07T00:54:57;13.10;;;11.45;;
13855;SDS011;6998;53.608;9.958;2023-05-07T00:57:27;12.30;;;10.93;;
13855;SDS011;6998;53.608;9.958;2023-05-07T00:59:54;13.18;;;11.10;;
13855;SDS011;6998;53.608;9.958;2023-05-07T01:02:21;13.38;;;11.98;;
13855;SDS011;6998;53.608;9.958;2023-05-07T01:04:48;13.38;;;11.95;;
13855;SDS011;6998;53.608;9.958;2023-05-07T01:07:15;13.07;;;11.73;;
13855;SDS011;6998;53.608;9.958;2023-05-07T01:09:42;13.55;;;11.35;;
13855;SDS011;6998;53.608;9.958;2023-05-07T01:12:08;13.48;;;12.13;;
13855;SDS011;6998;53.608;9.958;2023-05-07T01:14:37;13.38;;;11.10;;
13855;SDS011;6998;53.608;9.958;2023-05-07T01:17:04;13.00;;;10.70;;
13855;SDS011;6998;53.608;9.958;2023-05-07T01:19:31;11.98;;;10.35;;
13855;SDS011;6998;53.608;9.958;2023-05-07T01:22:01;13.07;;;11.52;;
13855;SDS011;6998;53.608;9.958;2023-05-07T01:27:16;10.80;;;9.80;;
13855;SDS011;6998;53.608;9.958;2023-05-07T01:29:44;11.85;;;10.70;;
13855;SDS011;6998;53.608;9.958;2023-05-07T01:32:11;11.88;;;10.75;;
13855;SDS011;6998;53.608;9.958;2023-05-07T01:34:41;12.85;;;11.27;;
13855;SDS011;6998;53.608;9.958;2023-05-07T01:37:30;11.77;;;10.57;;
13855;SDS011;6998;53.608;9.958;2023-05-07T01:40:08;10.23;;;9.30;;
13855;SDS011;6998;53.608;9.958;2023-05-07T01:43:04;11.23;;;10.07;;
13855;SDS011;6998;53.608;9.958;2023-05-07T01:45:33;11.75;;;10.65;;
13855;SDS011;6998;53.608;9.958;2023-05-07T01:48:03;11.05;;;9.95;;
13855;SDS011;6998;53.608;9.958;2023-05-07T01:50:30;10.23;;;9.23;;
13855;SDS011;6998;53.608;9.958;2023-05-07T01:53:00;11.10;;;10.05;;
13855;SDS011;6998;53.608;9.958;2023-05-07T02:01:25;10.70;;;9.60;;
13855;SDS011;6998;53.608;9.958;2023-05-07T02:03:52;11.15;;;9.95;;
13855;SDS011;6998;53.608;9.958;2023-05-07T02:06:19;11.35;;;10.15;;
13855;SDS011;6998;53.608;9.958;2023-05-07T02:08:46;11.95;;;10.63;;
13855;SDS011;6998;53.608;9.958;2023-05-07T02:11:15;11.52;;;10.32;;
13855;SDS011;6998;53.608;9.958;2023-05-07T02:13:43;10.35;;;9.43;;
13855;SDS011;6998;53.608;9.958;2023-05-07T02:16:11;10.85;;;9.70;;
13855;SDS011;6998;53.608;9.958;2023-05-07T02:18:39;11.10;;;10.00;;
13855;SDS011;6998;53.608;9.958;2023-05-07T02:21:05;10.32;;;9.32;;
13855;SDS011;6998;53.608;9.958;2023-05-07T02:23:32;11.70;;;9.55;;
13855;SDS011;6998;53.608;9.958;2023-05-07T02:25:59;10.90;;;9.68;;
13855;SDS011;6998;53.608;9.958;2023-05-07T02:28:26;11.68;;;9.98;;
13855;SDS011;6998;53.608;9.958;2023-05-07T02:30:53;10.70;;;9.60;;
13855;SDS011;6998;53.608;9.958;2023-05-07T02:33:23;10.02;;;9.02;;
13855;SDS011;6998;53.608;9.958;2023-05-07T02:35:50;10.35;;;9.25;;
13855;SDS011;6998;53.608;9.958;2023-05-07T02:38:17;10.00;;;8.95;;
13855;SDS011;6998;53.608;9.958;2023-05-07T02:40:43;10.15;;;8.93;;
13855;SDS011;6998;53.608;9.958;2023-05-07T02:43:10;11.45;;;8.85;;
13855;SDS011;6998;53.608;9.958;2023-05-07T02:45:37;9.85;;;8.82;;
13855;SDS011;6998;53.608;9.958;2023-05-07T02:48:04;11.88;;;8.65;;
13855;SDS011;6998;53.608;9.958;2023-05-07T02:50:32;10.88;;;8.90;;
13855;SDS011;6998;53.608;9.958;2023-05-07T02:52:59;8.50;;;7.60;;
13855;SDS011;6998;53.608;9.958;2023-05-07T02:55:26;9.65;;;7.85;;
13855;SDS011;6998;53.608;9.958;2023-05-07T02:57:53;9.98;;;8.73;;
13855;SDS011;6998;53.608;9.958;2023-05-07T03:00:20;10.15;;;8.95;;
13855;SDS011;6998;53.608;9.958;2023-05-07T03:02:47;9.60;;;8.60;;
13855;SDS011;6998;53.608;9.958;2023-05-07T03:05:14;8.88;;;7.97;;
13855;SDS011;6998;53.608;9.958;2023-05-07T03:07:42;9.30;;;8.32;;
13855;SDS011;6998;53.608;9.958;2023-05-07T03:10:11;11.63;;;9.52;;
13855;SDS011;6998;53.608;9.958;2023-05-07T03:12:38;10.18;;;9.15;;
13855;SDS011;6998;53.608;9.958;2023-05-07T03:15:05;9.65;;;8.65;;
13855;SDS011;6998;53.608;9.958;2023-05-07T03:17:33;11.75;;;9.30;;
13855;SDS011;6998;53.608;9.958;2023-05-07T03:19:59;11.40;;;9.77;;
13855;SDS011;6998;53.608;9.958;2023-05-07T03:22:26;9.90;;;8.88;;
13855;SDS011;6998;53.608;9.958;2023-05-07T03:24:55;10.43;;;9.43;;
13855;SDS011;6998;53.608;9.958;2023-05-07T03:27:22;11.95;;;10.63;;
13855;SDS011;6998;53.608;9.958;2023-05-07T03:29:48;11.15;;;10.00;;
13855;SDS011;6998;53.608;9.958;2023-05-07T03:32:15;11.68;;;10.48;;
13855;SDS011;6998;53.608;9.958;2023-05-07T03:34:42;12.32;;;11.02;;
13855;SDS011;6998;53.608;9.958;2023-05-07T03:37:09;11.82;;;10.63;;
13855;SDS011;6998;53.608;9.958;2023-05-07T03:39:36;11.52;;;10.32;;
13855;SDS011;6998;53.608;9.958;2023-05-07T03:42:04;13.20;;;11.15;;
13855;SDS011;6998;53.608;9.958;2023-05-07T03:44:31;12.18;;;10.77;;
13855;SDS011;6998;53.608;9.958;2023-05-07T03:46:58;11.20;;;10.10;;
13855;SDS011;6998;53.608;9.958;2023-05-07T03:49:25;12.82;;;11.10;;
13855;SDS011;6998;53.608;9.958;2023-05-07T03:51:51;12.07;;;10.80;;
13855;SDS011;6998;53.608;9.958;2023-05-07T03:54:18;11.32;;;10.25;;
13855;SDS011;6998;53.608;9.958;2023-05-07T03:56:45;12.32;;;10.93;;
13855;SDS011;6998;53.608;9.958;2023-05-07T03:59:14;11.10;;;10.00;;
13855;SDS011;6998;53.608;9.958;2023-05-07T04:01:40;11.45;;;10.35;;
13855;SDS011;6998;53.608;9.958;2023-05-07T04:04:09;10.77;;;9.77;;
13855;SDS011;6998;53.608;9.958;2023-05-07T04:06:36;10.88;;;9.77;;
13855;SDS011;6998;53.608;9.958;2023-05-07T04:09:03;10.75;;;9.65;;
13855;SDS011;6998;53.608;9.958;2023-05-07T04:11:30;11.18;;;9.90;;
13855;SDS011;6998;53.608;9.958;2023-05-07T04:13:57;10.55;;;9.55;;
13855;SDS011;6998;53.608;9.958;2023-05-07T04:16:25;12.05;;;10.60;;
13855;SDS011;6998;53.608;9.958;2023-05-07T04:18:52;11.52;;;10.43;;
13855;SDS011;6998;53.608;9.958;2023-05-07T04:21:19;11.85;;;10.65;;
13855;SDS011;6998;53.608;9.958;2023-05-07T04:23:47;11.20;;;10.10;;
13855;SDS011;6998;53.608;9.958;2023-05-07T04:26:14;10.68;;;9.60;;
13855;SDS011;6998;53.608;9.958;2023-05-07T04:28:41;10.65;;;9.57;;
13855;SDS011;6998;53.608;9.958;2023-05-07T04:31:08;11.00;;;9.90;;
13855;SDS011;6998;53.608;9.958;2023-05-07T04:36:35;11.57;;;10.37;;
13855;SDS011;6998;53.608;9.958;2023-05-07T04:39:05;10.83;;;9.73;;
13855;SDS011;6998;53.608;9.958;2023-05-07T04:42:08;12.10;;;9.77;;
13855;SDS011;6998;53.608;9.958;2023-05-07T04:44:34;11.80;;;9.10;;
13855;SDS011;6998;53.608;9.958;2023-05-07T04:47:02;10.40;;;9.27;;
13855;SDS011;6998;53.608;9.958;2023-05-07T04:49:29;9.20;;;8.30;;
13855;SDS011;6998;53.608;9.958;2023-05-07T04:51:57;11.50;;;9.33;;
13855;SDS011;6998;53.608;9.958;2023-05-07T04:54:24;9.55;;;8.30;;
13855;SDS011;6998;53.608;9.958;2023-05-07T04:56:51;9.25;;;8.45;;
13855;SDS011;6998;53.608;9.958;2023-05-07T04:59:18;10.35;;;8.55;;
13855;SDS011;6998;53.608;9.958;2023-05-07T05:01:48;9.25;;;8.05;;
13855;SDS011;6998;53.608;9.958;2023-05-07T05:04:15;9.65;;;8.70;;
13855;SDS011;6998;53.608;9.958;2023-05-07T05:06:41;10.20;;;8.23;;
13855;SDS011;6998;53.608;9.958;2023-05-07T05:09:10;9.70;;;8.55;;
13855;SDS011;6998;53.608;9.958;2023-05-07T05:11:39;9.65;;;8.70;;
13855;SDS011;6998;53.608;9.958;2023-05-07T05:14:14;10.18;;;9.15;;
13855;SDS011;6998;53.608;9.958;2023-05-07T05:16:41;9.38;;;8.48;;
13855;SDS011;6998;53.608;9.958;2023-05-07T05:19:08;8.98;;;8.07;;
13855;SDS011;6998;53.608;9.958;2023-05-07T05:21:35;9.80;;;8.80;;
13855;SDS011;6998;53.608;9.958;2023-05-07T05:24:02;9.93;;;8.93;;
13855;SDS011;6998;53.608;9.958;2023-05-07T05:29:27;9.53;;;8.53;;
13855;SDS011;6998;53.608;9.958;2023-05-07T05:32:19;11.57;;;9.53;;
13855;SDS011;6998;53.608;9.958;2023-05-07T05:34:59;12.83;;;9.10;;
13855;SDS011;6998;53.608;9.958;2023-05-07T05:37:28;10.43;;;9.43;;
13855;SDS011;6998;53.608;9.958;2023-05-07T05:40:06;12.43;;;8.93;;
13855;SDS011;6998;53.608;9.958;2023-05-07T05:42:37;12.85;;;8.77;;
13855;SDS011;6998;53.608;9.958;2023-05-07T05:45:04;9.15;;;8.25;;
13855;SDS011;6998;53.608;9.958;2023-05-07T05:47:31;9.82;;;8.85;;
13855;SDS011;6998;53.608;9.958;2023-05-07T05:49:58;10.65;;;9.15;;
13855;SDS011;6998;53.608;9.958;2023-05-07T05:52:25;9.93;;;8.90;;
13855;SDS011;6998;53.608;9.958;2023-05-07T05:54:53;10.38;;;8.77;;
13855;SDS011;6998;53.608;9.958;2023-05-07T05:57:26;11.13;;;9.80;;
13855;SDS011;6998;53.608;9.958;2023-05-07T05:59:55;9.35;;;8.35;;
13855;SDS011;6998;53.608;9.958;2023-05-07T06:02:21;10.48;;;9.45;;
13855;SDS011;6998;53.608;9.958;2023-05-07T06:04:48;9.77;;;8.77;;
13855;SDS011;6998;53.608;9.958;2023-05-07T06:07:15;10.32;;;9.23;;
13855;SDS011;6998;53.608;9.958;2023-05-07T06:09:42;11.20;;;9.45;;
13855;SDS011;6998;53.608;9.958;2023-05-07T06:12:09;11.70;;;10.05;;
13855;SDS011;6998;53.608;9.958;2023-05-07T06:14:36;11.20;;;9.32;;
13855;SDS011;6998;53.608;9.958;2023-05-07T06:17:04;9.75;;;8.85;;
13855;SDS011;6998;53.608;9.958;2023-05-07T06:19:31;13.45;;;8.98;;
13855;SDS011;6998;53.608;9.958;2023-05-07T06:21:58;9.80;;;8.82;;
13855;SDS011;6998;53.608;9.958;2023-05-07T06:24:26;9.68;;;8.13;;
13855;SDS011;6998;53.608;9.958;2023-05-07T06:26:53;9.25;;;8.35;;
13855;SDS011;6998;53.608;9.958;2023-05-07T06:29:19;10.35;;;8.73;;
13855;SDS011;6998;53.608;9.958;2023-05-07T06:32:08;9.63;;;8.68;;
13855;SDS011;6998;53.608;9.958;2023-05-07T06:34:35;9.95;;;8.95;;
13855;SDS011;6998;53.608;9.958;2023-05-07T06:37:02;10.63;;;9.32;;
13855;SDS011;6998;53.608;9.958;2023-05-07T06:39:28;9.80;;;8.82;;
13855;SDS011;6998;53.608;9.958;2023-05-07T06:41:55;10.18;;;8.88;;
13855;SDS011;6998;53.608;9.958;2023-05-07T06:44:23;10.95;;;8.73;;
13855;SDS011;6998;53.608;9.958;2023-05-07T06:46:50;9.50;;;8.20;;
13855;SDS011;6998;53.608;9.958;2023-05-07T06:49:18;9.38;;;8.27;;
13855;SDS011;6998;53.608;9.958;2023-05-07T06:51:45;9.43;;;8.40;;
13855;SDS011;6998;53.608;9.958;2023-05-07T06:54:12;9.35;;;7.90;;
13855;SDS011;6998;53.608;9.958;2023-05-07T06:56:39;8.57;;;7.72;;
13855;SDS011;6998;53.608;9.958;2023-05-07T06:59:06;8.90;;;7.22;;
13855;SDS011;6998;53.608;9.958;2023-05-07T07:01:33;8.48;;;7.63;;
13855;SDS011;6998;53.608;9.958;2023-05-07T07:04:00;7.93;;;7.13;;
13855;SDS011;6998;53.608;9.958;2023-05-07T07:06:28;8.63;;;7.82;;
13855;SDS011;6998;53.608;9.958;2023-05-07T07:08:56;8.05;;;7.25;;
13855;SDS011;6998;53.608;9.958;2023-05-07T07:11:23;8.57;;;7.65;;
13855;SDS011;6998;53.608;9.958;2023-05-07T07:13:50;8.77;;;7.60;;
13855;SDS011;6998;53.608;9.958;2023-05-07T07:16:19;8.32;;;7.53;;
13855;SDS011;6998;53.608;9.958;2023-05-07T07:18:46;7.82;;;6.80;;
13855;SDS011;6998;53.608;9.958;2023-05-07T07:21:12;8.15;;;7.35;;
13855;SDS011;6998;53.608;9.958;2023-05-07T07:23:41;7.38;;;6.70;;
13855;SDS011;6998;53.608;9.958;2023-05-07T07:26:07;7.97;;;7.18;;
13855;SDS011;6998;53.608;9.958;2023-05-07T07:28:34;8.52;;;7.32;;
13855;SDS011;6998;53.608;9.958;2023-05-07T07:31:01;7.35;;;6.65;;
13855;SDS011;6998;53.608;9.958;2023-05-07T07:33:28;8.10;;;6.95;;
13855;SDS011;6998;53.608;9.958;2023-05-07T07:35:55;7.43;;;6.50;;
13855;SDS011;6998;53.608;9.958;2023-05-07T07:38:21;7.65;;;6.82;;
13855;SDS011;6998;53.608;9.958;2023-05-07T07:40:50;6.60;;;5.95;;
13855;SDS011;6998;53.608;9.958;2023-05-07T07:43:16;7.35;;;6.65;;
13855;SDS011;6998;53.608;9.958;2023-05-07T07:45:43;7.45;;;6.75;;
13855;SDS011;6998;53.608;9.958;2023-05-07T07:48:10;6.70;;;6.00;;
13855;SDS011;6998;53.608;9.958;2023-05-07T07:50:37;7.18;;;6.40;;
13855;SDS011;6998;53.608;9.958;2023-05-07T07:53:04;7.03;;;6.38;;
13855;SDS011;6998;53.608;9.958;2023-05-07T07:55:31;6.80;;;6.10;;
13855;SDS011;6998;53.608;9.958;2023-05-07T07:57:59;7.07;;;6.38;;
13855;SDS011;6998;53.608;9.958;2023-05-07T08:00:26;7.18;;;6.47;;
13855;SDS011;6998;53.608;9.958;2023-05-07T08:02:52;7.00;;;6.30;;
13855;SDS011;6998;53.608;9.958;2023-05-07T08:05:19;7.05;;;6.35;;
13855;SDS011;6998;53.608;9.958;2023-05-07T08:07:46;6.78;;;6.18;;
13855;SDS011;6998;53.608;9.958;2023-05-07T08:10:16;6.47;;;5.88;;
13855;SDS011;6998;53.608;9.958;2023-05-07T08:12:46;7.22;;;5.78;;
13855;SDS011;6998;53.608;9.958;2023-05-07T08:15:14;6.43;;;5.88;;
13855;SDS011;6998;53.608;9.958;2023-05-07T08:17:41;6.90;;;5.80;;
13855;SDS011;6998;53.608;9.958;2023-05-07T08:20:08;7.53;;;6.07;;
13855;SDS011;6998;53.608;9.958;2023-05-07T08:22:36;7.15;;;6.30;;
13855;SDS011;6998;53.608;9.958;2023-05-07T08:25:03;8.70;;;5.75;;
13855;SDS011;6998;53.608;9.958;2023-05-07T08:27:30;6.45;;;5.85;;
13855;SDS011;6998;53.608;9.958;2023-05-07T08:29:57;5.97;;;5.38;;
13855;SDS011;6998;53.608;9.958;2023-05-07T08:32:25;6.45;;;5.80;;
13855;SDS011;6998;53.608;9.958;2023-05-07T08:34:52;6.40;;;5.80;;
13855;SDS011;6998;53.608;9.958;2023-05-07T08:37:19;6.57;;;5.97;;
13855;SDS011;6998;53.608;9.958;2023-05-07T08:39:46;7.13;;;6.43;;
13855;SDS011;6998;53.608;9.958;2023-05-07T08:42:13;8.32;;;6.70;;
13855;SDS011;6998;53.608;9.958;2023-05-07T08:44:44;7.32;;;6.63;;
13855;SDS011;6998;53.608;9.958;2023-05-07T08:47:12;6.78;;;5.88;;
13855;SDS011;6998;53.608;9.958;2023-05-07T08:49:40;6.00;;;5.50;;
13855;SDS011;6998;53.608;9.958;2023-05-07T08:52:07;9.13;;;6.30;;
13855;SDS011;6998;53.608;9.958;2023-05-07T08:54:34;6.55;;;5.95;;
13855;SDS011;6998;53.608;9.958;2023-05-07T08:57:03;6.75;;;6.13;;
13855;SDS011;6998;53.608;9.958;2023-05-07T08:59:30;7.07;;;6.35;;
13855;SDS011;6998;53.608;9.958;2023-05-07T09:01:57;6.82;;;6.25;;
13855;SDS011;6998;53.608;9.958;2023-05-07T09:04:24;7.97;;;6.53;;
13855;SDS011;6998;53.608;9.958;2023-05-07T09:06:52;7.60;;;6.80;;
13855;SDS011;6998;53.608;9.958;2023-05-07T09:09:19;6.47;;;5.82;;
13855;SDS011;6998;53.608;9.958;2023-05-07T09:11:48;6.72;;;6.13;;
13855;SDS011;6998;53.608;9.958;2023-05-07T09:14:15;6.32;;;5.75;;
13855;SDS011;6998;53.608;9.958;2023-05-07T09:16:42;6.90;;;6.15;;
13855;SDS011;6998;53.608;9.958;2023-05-07T09:19:09;9.60;;;6.25;;
13855;SDS011;6998;53.608;9.958;2023-05-07T09:21:36;6.10;;;5.60;;
13855;SDS011;6998;53.608;9.958;2023-05-07T09:24:04;6.47;;;5.82;;
13855;SDS011;6998;53.608;9.958;2023-05-07T09:26:32;7.13;;;5.55;;
13855;SDS011;6998;53.608;9.958;2023-05-07T09:28:59;8.73;;;5.90;;
13855;SDS011;6998;53.608;9.958;2023-05-07T09:31:26;6.53;;;5.90;;
13855;SDS011;6998;53.608;9.958;2023-05-07T09:33:53;6.60;;;5.90;;
13855;SDS011;6998;53.608;9.958;2023-05-07T09:36:20;5.97;;;5.38;;
13855;SDS011;6998;53.608;9.958;2023-05-07T09:38:47;6.00;;;5.40;;
13855;SDS011;6998;53.608;9.958;2023-05-07T09:41:16;8.77;;;6.13;;
13855;SDS011;6998;53.608;9.958;2023-05-07T09:43:42;7.13;;;5.80;;
13855;SDS011;6998;53.608;9.958;2023-05-07T09:46:11;7.15;;;5.60;;
13855;SDS011;6998;53.608;9.958;2023-05-07T09:48:39;6.00;;;5.40;;
13855;SDS011;6998;53.608;9.958;2023-05-07T09:51:16;6.93;;;5.30;;
13855;SDS011;6998;53.608;9.958;2023-05-07T09:53:48;6.60;;;5.15;;
13855;SDS011;6998;53.608;9.958;2023-05-07T09:56:18;5.90;;;5.30;;
13855;SDS011;6998;53.608;9.958;2023-05-07T09:58:46;5.43;;;4.93;;
13855;SDS011;6998;53.608;9.958;2023-05-07T10:01:13;5.00;;;4.60;;
13855;SDS011;6998;53.608;9.958;2023-05-07T10:03:40;5.53;;;4.93;;
13855;SDS011;6998;53.608;9.958;2023-05-07T10:06:08;5.80;;;5.10;;
13855;SDS011;6998;53.608;9.958;2023-05-07T10:08:36;5.47;;;5.07;;
13855;SDS011;6998;53.608;9.958;2023-05-07T10:11:03;7.45;;;5.40;;
13855;SDS011;6998;53.608;9.958;2023-05-07T10:13:32;5.60;;;5.10;;
13855;SDS011;6998;53.608;9.958;2023-05-07T10:16:01;6.45;;;5.85;;
13855;SDS011;6998;53.608;9.958;2023-05-07T10:18:29;5.60;;;5.10;;
13855;SDS011;6998;53.608;9.958;2023-05-07T10:20:59;5.50;;;5.00;;
13855;SDS011;6998;53.608;9.958;2023-05-07T10:23:30;5.78;;;5.28;;
13855;SDS011;6998;53.608;9.958;2023-05-07T10:25:59;6.00;;;5.40;;
13855;SDS011;6998;53.608;9.958;2023-05-07T10:28:27;6.25;;;5.65;;
13855;SDS011;6998;53.608;9.958;2023-05-07T10:31:01;5.82;;;5.25;;
13855;SDS011;6998;53.608;9.958;2023-05-07T10:33:35;6.85;;;5.60;;
13855;SDS011;6998;53.608;9.958;2023-05-07T10:36:04;5.88;;;5.38;;
13855;SDS011;6998;53.608;9.958;2023-05-07T10:38:33;5.60;;;5.15;;
13855;SDS011;6998;53.608;9.958;2023-05-07T10:41:00;5.68;;;5.18;;
13855;SDS011;6998;53.608;9.958;2023-05-07T10:43:38;5.68;;;5.13;;
13855;SDS011;6998;53.608;9.958;2023-05-07T10:46:11;5.72;;;5.22;;
13855;SDS011;6998;53.608;9.958;2023-05-07T10:51:41;8.45;;;5.78;;
13855;SDS011;6998;53.608;9.958;2023-05-07T10:54:18;5.50;;;5.00;;
13855;SDS011;6998;53.608;9.958;2023-05-07T10:56:48;6.00;;;4.93;;
13855;SDS011;6998;53.608;9.958;2023-05-07T11:02:08;7.55;;;5.20;;
13855;SDS011;6998;53.608;9.958;2023-05-07T11:04:36;5.38;;;4.88;;
13855;SDS011;6998;53.608;9.958;2023-05-07T11:07:24;5.07;;;4.57;;
13855;SDS011;6998;53.608;9.958;2023-05-07T11:09:56;5.30;;;4.80;;
13855;SDS011;6998;53.608;9.958;2023-05-07T11:15:41;4.63;;;4.22;;
13855;SDS011;6998;53.608;9.958;2023-05-07T11:18:12;5.10;;;4.10;;
13855;SDS011;6998;53.608;9.958;2023-05-07T11:20:46;5.05;;;4.30;;
13855;SDS011;6998;53.608;9.958;2023-05-07T11:26:23;4.97;;;4.35;;
13855;SDS011;6998;53.608;9.958;2023-05-07T11:28:51;3.95;;;3.55;;
13855;SDS011;6998;53.608;9.958;2023-05-07T11:31:22;4.32;;;3.92;;
13855;SDS011;6998;53.608;9.958;2023-05-07T11:33:52;4.15;;;3.75;;
13855;SDS011;6998;53.608;9.958;2023-05-07T11:36:20;4.70;;;3.45;;
13855;SDS011;6998;53.608;9.958;2023-05-07T11:38:48;4.55;;;3.90;;
13855;SDS011;6998;53.608;9.958;2023-05-07T11:41:15;4.63;;;4.10;;
13855;SDS011;6998;53.608;9.958;2023-05-07T11:43:54;4.15;;;3.70;;
13855;SDS011;6998;53.608;9.958;2023-05-07T11:46:22;5.10;;;3.90;;
13855;SDS011;6998;53.608;9.958;2023-05-07T11:48:49;4.35;;;3.72;;
13855;SDS011;6998;53.608;9.958;2023-05-07T11:51:20;4.10;;;3.53;;
13855;SDS011;6998;53.608;9.958;2023-05-07T11:53:48;3.85;;;3.47;;
13855;SDS011;6998;53.608;9.958;2023-05-07T11:56:15;4.10;;;3.33;;
13855;SDS011;6998;53.608;9.958;2023-05-07T11:58:43;3.88;;;3.50;;
13855;SDS011;6998;53.608;9.958;2023-05-07T12:01:11;3.97;;;3.58;;
13855;SDS011;6998;53.608;9.958;2023-05-07T12:03:39;3.85;;;3.30;;
13855;SDS011;6998;53.608;9.958;2023-05-07T12:06:08;4.53;;;3.60;;
13855;SDS011;6998;53.608;9.958;2023-05-07T12:08:39;3.75;;;3.45;;
13855;SDS011;6998;53.608;9.958;2023-05-07T12:11:07;3.80;;;3.50;;
13855;SDS011;6998;53.608;9.958;2023-05-07T12:13:36;4.60;;;3.20;;
13855;SDS011;6998;53.608;9.958;2023-05-07T12:16:04;4.70;;;3.33;;
13855;SDS011;6998;53.608;9.958;2023-05-07T12:18:35;3.40;;;3.10;;
13855;SDS011;6998;53.608;9.958;2023-05-07T12:21:04;5.65;;;3.45;;
13855;SDS011;6998;53.608;9.958;2023-05-07T12:23:33;3.80;;;3.13;;
13855;SDS011;6998;53.608;9.958;2023-05-07T12:26:03;4.85;;;3.50;;
13855;SDS011;6998;53.608;9.958;2023-05-07T12:28:36;4.10;;;3.20;;
13855;SDS011;6998;53.608;9.958;2023-05-07T12:31:04;5.05;;;3.25;;
13855;SDS011;6998;53.608;9.958;2023-05-07T12:33:31;2.88;;;2.67;;
13855;SDS011;6998;53.608;9.958;2023-05-07T12:36:00;2.88;;;2.67;;
13855;SDS011;6998;53.608;9.958;2023-05-07T12:38:34;3.40;;;3.10;;
13855;SDS011;6998;53.608;9.958;2023-05-07T12:41:04;3.30;;;2.95;;
13855;SDS011;6998;53.608;9.958;2023-05-07T12:43:32;3.83;;;3.15;;
13855;SDS011;6998;53.608;9.958;2023-05-07T12:45:59;3.80;;;3.05;;
13855;SDS011;6998;53.608;9.958;2023-05-07T12:48:29;3.50;;;3.03;;
13855;SDS011;6998;53.608;9.958;2023-05-07T12:50:56;2.75;;;2.55;;
13855;SDS011;6998;53.608;9.958;2023-05-07T12:53:24;3.15;;;2.50;;
13855;SDS011;6998;53.608;9.958;2023-05-07T12:55:52;5.18;;;2.72;;
13855;SDS011;6998;53.608;9.958;2023-05-07T12:58:26;3.17;;;2.40;;
13855;SDS011;6998;53.608;9.958;2023-05-07T13:00:54;2.65;;;2.45;;
13855;SDS011;6998;53.608;9.958;2023-05-07T13:03:24;2.60;;;2.33;;
13855;SDS011;6998;53.608;9.958;2023-05-07T13:05:52;3.20;;;2.40;;
13855;SDS011;6998;53.608;9.958;2023-05-07T13:08:29;2.50;;;2.30;;
13855;SDS011;6998;53.608;9.958;2023-05-07T13:11:00;2.78;;;2.58;;
13855;SDS011;6998;53.608;9.958;2023-05-07T13:13:30;2.80;;;2.60;;
13855;SDS011;6998;53.608;9.958;2023-05-07T13:15:57;3.55;;;2.40;;
13855;SDS011;6998;53.608;9.958;2023-05-07T13:18:24;2.85;;;2.60;;
13855;SDS011;6998;53.608;9.958;2023-05-07T13:20:52;4.20;;;2.40;;
13855;SDS011;6998;53.608;9.958;2023-05-07T13:23:19;2.83;;;2.58;;
13855;SDS011;6998;53.608;9.958;2023-05-07T13:25:46;2.83;;;2.50;;
13855;SDS011;6998;53.608;9.958;2023-05-07T13:28:13;2.75;;;2.55;;
13855;SDS011;6998;53.608;9.958;2023-05-07T13:30:42;2.85;;;2.47;;
13855;SDS011;6998;53.608;9.958;2023-05-07T13:33:09;3.05;;;2.75;;
13855;SDS011;6998;53.608;9.958;2023-05-07T13:35:36;2.88;;;2.50;;
13855;SDS011;6998;53.608;9.958;2023-05-07T13:38:03;2.50;;;2.30;;
13855;SDS011;6998;53.608;9.958;2023-05-07T13:40:30;2.88;;;2.38;;
13855;SDS011;6998;53.608;9.958;2023-05-07T13:42:57;2.60;;;2.40;;
13855;SDS011;6998;53.608;9.958;2023-05-07T13:45:28;3.90;;;2.28;;
13855;SDS011;6998;53.608;9.958;2023-05-07T13:47:57;3.00;;;2.53;;
13855;SDS011;6998;53.608;9.958;2023-05-07T13:50:24;3.47;;;2.35;;
13855;SDS011;6998;53.608;9.958;2023-05-07T13:52:52;3.53;;;2.58;;
13855;SDS011;6998;53.608;9.958;2023-05-07T13:55:19;2.30;;;2.10;;
13855;SDS011;6998;53.608;9.958;2023-05-07T13:57:47;2.83;;;2.30;;
13855;SDS011;6998;53.608;9.958;2023-05-07T14:00:20;2.30;;;2.10;;
13855;SDS011;6998;53.608;9.958;2023-05-07T14:02:47;2.30;;;2.10;;
13855;SDS011;6998;53.608;9.958;2023-05-07T14:05:15;2.42;;;2.22;;
13855;SDS011;6998;53.608;9.958;2023-05-07T14:07:42;2.60;;;2.40;;
13855;SDS011;6998;53.608;9.958;2023-05-07T14:10:10;2.30;;;2.10;;
13855;SDS011;6998;53.608;9.958;2023-05-07T14:12:42;2.38;;;2.17;;
13855;SDS011;6998;53.608;9.958;2023-05-07T14:15:10;3.08;;;2.20;;
13855;SDS011;6998;53.608;9.958;2023-05-07T14:17:37;2.15;;;1.95;;
13855;SDS011;6998;53.608;9.958;2023-05-07T14:20:04;3.17;;;2.15;;
13855;SDS011;6998;53.608;9.958;2023-05-07T14:22:33;2.97;;;1.90;;
13855;SDS011;6998;53.608;9.958;2023-05-07T14:25:00;2.28;;;2.08;;
13855;SDS011;6998;53.608;9.958;2023-05-07T14:27:27;2.20;;;2.00;;
13855;SDS011;6998;53.608;9.958;2023-05-07T14:29:54;2.15;;;1.83;;
13855;SDS011;6998;53.608;9.958;2023-05-07T14:32:21;2.22;;;2.03;;
13855;SDS011;6998;53.608;9.958;2023-05-07T14:34:48;2.90;;;1.83;;
13855;SDS011;6998;53.608;9.958;2023-05-07T14:37:16;2.30;;;2.00;;
13855;SDS011;6998;53.608;9.958;2023-05-07T14:39:46;2.90;;;2.30;;
13855;SDS011;6998;53.608;9.958;2023-05-07T14:42:13;2.78;;;2.55;;
13855;SDS011;6998;53.608;9.958;2023-05-07T14:44:40;2.00;;;1.90;;
13855;SDS011;6998;53.608;9.958;2023-05-07T14:47:07;1.90;;;1.75;;
13855;SDS011;6998;53.608;9.958;2023-05-07T14:49:34;2.42;;;1.85;;
13855;SDS011;6998;53.608;9.958;2023-05-07T14:52:01;2.88;;;1.98;;
13855;SDS011;6998;53.608;9.958;2023-05-07T14:54:29;1.90;;;1.80;;
13855;SDS011;6998;53.608;9.958;2023-05-07T14:56:58;2.45;;;1.98;;
13855;SDS011;6998;53.608;9.958;2023-05-07T14:59:25;2.80;;;1.80;;
13855;SDS011;6998;53.608;9.958;2023-05-07T15:01:55;2.17;;;1.98;;
13855;SDS011;6998;53.608;9.958;2023-05-07T15:04:22;2.65;;;1.92;;
13855;SDS011;6998;53.608;9.958;2023-05-07T15:06:50;2.30;;;2.10;;
13855;SDS011;6998;53.608;9.958;2023-05-07T15:09:17;2.22;;;2.00;;
13855;SDS011;6998;53.608;9.958;2023-05-07T15:11:44;2.28;;;2.08;;
13855;SDS011;6998;53.608;9.958;2023-05-07T15:14:12;1.92;;;1.77;;
13855;SDS011;6998;53.608;9.958;2023-05-07T15:16:48;2.97;;;1.98;;
13855;SDS011;6998;53.608;9.958;2023-05-07T15:19:15;2.17;;;1.92;;
13855;SDS011;6998;53.608;9.958;2023-05-07T15:21:45;3.35;;;2.20;;
13855;SDS011;6998;53.608;9.958;2023-05-07T15:24:26;3.35;;;2.20;;
13855;SDS011;6998;53.608;9.958;2023-05-07T15:26:53;2.42;;;1.95;;
13855;SDS011;6998;53.608;9.958;2023-05-07T15:29:22;3.00;;;2.10;;